Time;durP1;ratioP1;P1;durP2;ratioP2;P2;SDS_P1;SDS_P2;PMS_P1;PMS_P2;Temp;Humidity;BMP_temperature;BMP_pressure;BME280_temperature;BME280_humidity;BME280_pressure;Samples;Min_cycle;Max_cycle;Signal;HPM_P1;HPM_P2
2021/12/21 00:00:19;;;;;;;14.80;8.68;;;;;;;0.78;100.00;100855.34;4902631;29;20036;-90
2021/12/21 00:02:49;;;;;;;15.30;9.05;;;;;;;1.12;100.00;100910.19;4948113;29;22566;-89
2021/12/21 00:05:19;;;;;;;20.73;9.35;;;;;;;1.21;100.00;100915.59;4936624;29;20027;-89
2021/12/21 00:07:48;;;;;;;20.90;8.90;;;;;;;1.21;100.00;100912.97;4943966;28;20054;-89
2021/12/21 00:10:17;;;;;;;22.85;9.82;;;;;;;0.72;100.00;100837.81;4970660;28;20032;-90
2021/12/21 00:13:00;;;;;;;22.58;8.73;;;;;;;0.98;100.00;100878.47;4953179;28;20038;-89
2021/12/21 00:15:42;;;;;;;18.30;8.57;;;;;;;0.94;100.00;100884.50;4952403;29;20027;-89
2021/12/21 00:19:10;;;;;;;14.80;7.75;;;;;;;0.65;100.00;100850.72;4953170;29;20023;-89
2021/12/21 00:21:08;;;;;;;20.73;8.55;;;;;;;0.59;100.00;100856.75;4953218;28;20043;-90
2021/12/21 00:23:44;;;;;;;17.02;7.30;;;;;;;0.61;100.00;100872.47;4953413;29;20066;-89
2021/12/21 00:26:20;;;;;;;11.93;7.55;;;;;;;0.66;100.00;100884.78;4943218;29;20037;-89
2021/12/21 00:31:28;;;;;;;18.35;7.93;;;;;;;0.55;100.00;100880.19;4969141;28;20501;-89
2021/12/21 00:33:55;;;;;;;12.55;7.47;;;;;;;0.38;100.00;100863.25;4953561;28;20041;-90
2021/12/21 00:36:25;;;;;;;15.23;8.70;;;;;;;0.33;100.00;100865.75;4953808;28;20035;-90
2021/12/21 00:38:53;;;;;;;20.63;8.50;;;;;;;0.45;100.00;100893.91;4952587;28;20102;-89
2021/12/21 00:41:20;;;;;;;18.50;8.65;;;;;;;-0.04;100.00;100798.72;4952747;29;20023;-90
2021/12/21 00:43:46;;;;;;;15.65;6.88;;;;;;;0.09;100.00;100809.41;4949433;29;20039;-90
2021/12/21 00:46:17;;;;;;;20.23;9.63;;;;;;;0.57;100.00;100883.72;4960958;28;20027;-90
2021/12/21 00:48:53;;;;;;;19.33;10.20;;;;;;;0.62;100.00;100887.31;4951985;28;20027;-90
2021/12/21 00:51:21;;;;;;;16.27;9.18;;;;;;;0.32;100.00;100823.88;4945681;29;20027;-90
2021/12/21 00:53:46;;;;;;;18.15;8.85;;;;;;;0.07;100.00;100790.22;4956778;28;20513;-89
2021/12/21 00:56:12;;;;;;;19.80;10.55;;;;;;;0.06;100.00;100791.03;4967693;28;20047;-90
2021/12/21 00:58:38;;;;;;;18.80;10.00;;;;;;;0.68;100.00;100863.88;4948785;28;20031;-90
2021/12/21 01:01:06;;;;;;;18.35;8.63;;;;;;;0.68;100.00;100869.13;4953747;28;20480;-89
2021/12/21 01:03:48;;;;;;;23.73;14.13;;;;;;;0.64;100.00;100860.34;4936196;29;20047;-90
2021/12/21 01:06:23;;;;;;;24.65;10.98;;;;;;;0.67;100.00;100843.81;4932671;29;20042;-90
2021/12/21 01:11:26;;;;;;;21.00;10.60;;;;;;;0.54;100.00;100821.75;4972004;28;20034;-89
2021/12/21 01:14:29;;;;;;;14.70;7.35;;;;;;;0.78;100.00;100852.75;4961465;28;20023;-90
2021/12/21 01:17:13;;;;;;;19.73;8.98;;;;;;;0.24;100.00;100757.44;4972244;28;20296;-89
2021/12/21 01:19:44;;;;;;;13.95;8.02;;;;;;;0.82;100.00;100854.59;4954827;28;20046;-88
2021/12/21 01:22:21;;;;;;;13.73;8.00;;;;;;;0.19;100.00;100780.00;4971306;28;20027;-89
2021/12/21 01:27:42;;;;;;;13.02;6.72;;;;;;;0.83;100.00;100877.28;4971727;28;20031;-89
2021/12/21 01:30:18;;;;;;;12.82;6.85;;;;;;;0.92;100.00;100867.00;4972554;28;20014;-89
2021/12/21 01:33:23;;;;;;;9.90;6.22;;;;;;;0.87;100.00;100860.78;4951562;29;20031;-89
2021/12/21 01:35:51;;;;;;;10.38;5.65;;;;;;;0.61;100.00;100822.75;4966119;28;20038;-89
2021/12/21 01:38:34;;;;;;;14.32;5.80;;;;;;;0.19;100.00;100765.19;4967060;28;20409;-90
2021/12/21 01:41:08;;;;;;;13.90;7.55;;;;;;;0.41;100.00;100804.03;4958744;28;20031;-89
2021/12/21 01:43:41;;;;;;;15.02;7.35;;;;;;;0.81;100.00;100858.03;4960026;28;20046;-89
2021/12/21 01:51:52;;;;;;;11.13;6.63;;;;;;;0.86;100.00;100859.00;4979937;28;20469;-89
2021/12/21 01:54:18;;;;;;;11.23;6.00;;;;;;;0.78;100.00;100850.13;4961719;28;20038;-89
2021/12/21 01:56:44;;;;;;;11.27;5.95;;;;;;;0.75;100.00;100868.41;4973902;28;20031;-89
2021/12/21 01:59:12;;;;;;;13.63;6.88;;;;;;;0.57;100.00;100857.56;4957861;28;20435;-89
2021/12/21 02:01:38;;;;;;;18.08;7.65;;;;;;;0.55;100.00;100854.00;4974785;28;20030;-89
2021/12/21 02:04:04;;;;;;;11.68;6.88;;;;;;;0.63;100.00;100869.03;4974262;28;20031;-90
2021/12/21 02:06:30;;;;;;;18.02;6.85;;;;;;;0.35;100.00;100823.94;4974343;28;20050;-89
2021/12/21 02:08:56;;;;;;;18.95;7.82;;;;;;;0.34;100.00;100825.69;4965077;28;20051;-90
2021/12/21 02:11:23;;;;;;;13.65;7.05;;;;;;;0.41;100.00;100826.69;4972911;28;20026;-89
2021/12/21 02:13:50;;;;;;;17.58;7.05;;;;;;;0.12;100.00;100757.16;4978303;28;20034;-89
2021/12/21 02:16:26;;;;;;;17.33;6.32;;;;;;;0.66;100.00;100857.75;4974077;28;20031;-89
2021/12/21 02:19:40;;;;;;;8.43;5.40;;;;;;;0.59;100.00;100850.63;4970505;28;20058;-90
2021/12/21 02:21:46;;;;;;;8.18;5.55;;;;;;;0.48;100.00;100834.69;4964492;28;20066;-90
2021/12/21 02:24:17;;;;;;;12.88;6.88;;;;;;;0.34;100.00;100827.41;4973263;28;20031;-89
2021/12/21 02:27:17;;;;;;;12.68;6.72;;;;;;;0.44;100.00;100842.44;4960897;28;20091;-90
2021/12/21 02:29:42;;;;;;;11.95;6.53;;;;;;;0.40;100.00;100838.00;4942838;28;20027;-89
2021/12/21 02:32:12;;;;;;;14.80;6.13;;;;;;;0.08;100.00;100786.75;4956347;28;20552;-89
2021/12/21 02:34:38;;;;;;;13.70;6.80;;;;;;;0.61;100.00;100865.50;4973691;28;20033;-89
2021/12/21 02:37:04;;;;;;;11.82;6.65;;;;;;;0.43;100.00;100843.31;4965997;28;20023;-90
2021/12/21 02:39:29;;;;;;;14.48;6.75;;;;;;;0.44;100.00;100851.19;4938871;29;20023;-89
2021/12/21 02:41:56;;;;;;;13.82;6.40;;;;;;;0.42;100.00;100839.81;4953832;29;20023;-90
2021/12/21 02:44:22;;;;;;;14.48;6.75;;;;;;;0.32;100.00;100822.16;4955833;28;20031;-90
2021/12/21 02:46:48;;;;;;;9.73;6.18;;;;;;;0.43;100.00;100844.19;4972441;28;20035;-89
2021/12/21 02:49:13;;;;;;;11.68;6.90;;;;;;;0.30;100.00;100820.38;4975713;28;20080;-89
2021/12/21 02:51:41;;;;;;;15.70;6.47;;;;;;;0.52;100.00;100851.34;4951983;28;20031;-89
2021/12/21 02:54:08;;;;;;;12.05;7.85;;;;;;;0.24;100.00;100808.03;4973936;28;20035;-89
2021/12/21 02:56:34;;;;;;;11.60;7.72;;;;;;;0.32;100.00;100822.16;4974472;28;20113;-89
2021/12/21 02:58:59;;;;;;;10.90;6.57;;;;;;;0.15;100.00;100814.81;4973552;28;20113;-90
2021/12/21 03:01:28;;;;;;;12.02;6.55;;;;;;;-0.27;100.00;100758.09;4956369;28;20027;-90
2021/12/21 03:03:54;;;;;;;15.10;6.50;;;;;;;0.31;100.00;100845.66;4953593;28;20110;-89
2021/12/21 03:07:22;;;;;;;13.90;6.45;;;;;;;0.26;100.00;100852.53;4955505;29;20166;-89
2021/12/21 03:09:36;;;;;;;10.60;6.25;;;;;;;0.20;100.00;100834.94;4958135;28;20038;-89
2021/12/21 03:12:10;;;;;;;17.42;6.68;;;;;;;0.12;100.00;100828.69;4969270;28;20031;-90
2021/12/21 03:14:36;;;;;;;15.30;6.28;;;;;;;0.17;100.00;100834.00;4974233;28;20391;-89
2021/12/21 03:17:03;;;;;;;15.00;7.22;;;;;;;0.31;100.00;100851.78;4969417;28;20030;-89
2021/12/21 03:19:28;;;;;;;11.52;6.68;;;;;;;0.19;100.00;100820.13;4971891;28;20022;-90
2021/12/21 03:21:54;;;;;;;13.82;6.75;;;;;;;0.32;100.00;100829.09;4976196;28;20494;-89
2021/12/21 03:24:20;;;;;;;18.80;7.22;;;;;;;-0.20;100.00;100754.75;4955221;28;20027;-90
2021/12/21 03:26:46;;;;;;;14.60;6.45;;;;;;;0.13;100.00;100806.03;4952715;29;20023;-89
2021/12/21 03:29:12;;;;;;;16.95;6.43;;;;;;;0.46;100.00;100851.22;4953835;28;20039;-89
2021/12/21 03:31:38;;;;;;;13.80;5.97;;;;;;;-0.07;100.00;100753.31;4956483;28;20030;-90
2021/12/21 03:34:05;;;;;;;14.23;7.43;;;;;;;-0.38;100.00;100728.22;4972569;28;20080;-89
2021/12/21 03:36:31;;;;;;;11.05;6.50;;;;;;;-0.17;100.00;100733.03;4969448;28;20065;-89
2021/12/21 03:39:05;;;;;;;11.40;6.82;;;;;;;0.52;100.00;100844.38;4968681;28;20046;-90
2021/12/21 03:41:32;;;;;;;11.18;5.97;;;;;;;0.54;100.00;100847.91;4935782;29;20031;-89
2021/12/21 03:44:01;;;;;;;14.30;7.50;;;;;;;0.54;100.00;100852.25;4937383;29;20530;-89
2021/12/21 03:46:28;;;;;;;14.77;6.53;;;;;;;-0.10;100.00;100751.50;4943682;28;20023;-89
2021/12/21 03:48:54;;;;;;;10.77;6.00;;;;;;;0.35;100.00;100835.28;4972964;28;20525;-90
2021/12/21 03:51:20;;;;;;;13.73;7.50;;;;;;;-0.18;100.00;100749.56;4970791;28;20026;-90
2021/12/21 03:53:47;;;;;;;18.30;7.32;;;;;;;0.21;100.00;100825.38;4972367;28;20027;-90
2021/12/21 03:56:33;;;;;;;12.02;5.70;;;;;;;0.11;100.00;100824.31;4971419;28;20490;-90
2021/12/21 03:58:59;;;;;;;23.65;7.55;;;;;;;0.11;100.00;100813.84;4972011;28;20027;-89
2021/12/21 04:01:25;;;;;;;15.65;7.25;;;;;;;0.02;100.00;100795.31;4971183;28;20089;-89
2021/12/21 04:03:50;;;;;;;14.52;7.63;;;;;;;0.34;100.00;100848.34;4984665;28;20039;-89
2021/12/21 04:06:16;;;;;;;17.65;6.15;;;;;;;0.29;100.00;100855.19;4971629;28;20054;-89
2021/12/21 04:08:41;;;;;;;15.00;6.50;;;;;;;0.29;100.00;100856.09;4948910;28;20094;-90
2021/12/21 04:11:07;;;;;;;11.85;6.82;;;;;;;0.04;100.00;100811.94;4953601;28;20034;-89
2021/12/21 04:13:32;;;;;;;11.18;6.15;;;;;;;-0.09;100.00;100794.22;4956184;28;20049;-89
2021/12/21 04:16:01;;;;;;;15.43;6.32;;;;;;;0.24;100.00;100841.13;4971109;28;20041;-89
2021/12/21 04:18:26;;;;;;;11.23;6.25;;;;;;;0.22;100.00;100840.22;4972153;28;20027;-89
2021/12/21 04:20:52;;;;;;;17.52;6.57;;;;;;;0.24;100.00;100846.38;4955429;28;20037;-90
2021/12/21 04:23:18;;;;;;;14.20;6.90;;;;;;;-0.01;100.00;100797.88;4972740;28;20458;-89
2021/12/21 04:25:44;;;;;;;13.52;6.40;;;;;;;0.11;100.00;100823.41;4955233;28;20036;-89
2021/12/21 04:28:11;;;;;;;15.40;7.13;;;;;;;-0.03;100.00;100789.13;4971687;28;20081;-89
2021/12/21 04:30:37;;;;;;;17.50;5.97;;;;;;;-0.66;100.00;100686.66;4954951;28;20027;-89
2021/12/21 04:33:03;;;;;;;19.63;7.22;;;;;;;0.12;100.00;100825.16;4986204;28;20038;-89
2021/12/21 04:35:28;;;;;;;14.70;7.13;;;;;;;0.13;100.00;100837.41;4955265;28;20031;-89
2021/12/21 04:37:59;;;;;;;11.60;6.10;;;;;;;-0.06;100.00;100809.97;4973100;28;20126;-89
2021/12/21 04:40:38;;;;;;;11.02;5.20;;;;;;;0.03;100.00;100819.75;4971541;28;20035;-89
2021/12/21 04:43:05;;;;;;;18.75;7.75;;;;;;;-0.17;100.00;100796.69;4957593;28;20022;-89
2021/12/21 04:45:31;;;;;;;15.48;6.32;;;;;;;0.12;100.00;100831.28;4972818;28;20368;-89
2021/12/21 04:47:56;;;;;;;11.27;5.90;;;;;;;-0.04;100.00;100808.28;4972042;28;20109;-90
2021/12/21 04:50:24;;;;;;;18.58;6.82;;;;;;;0.08;100.00;100823.34;4949708;28;20590;-89
2021/12/21 04:52:50;;;;;;;13.05;6.65;;;;;;;0.03;100.00;100816.28;4974222;28;20470;-89
2021/12/21 04:55:15;;;;;;;18.83;7.03;;;;;;;-0.06;100.00;100821.31;4965587;28;20019;-89
2021/12/21 04:57:41;;;;;;;14.07;6.20;;;;;;;-0.03;100.00;100821.38;4971192;28;20058;-90
2021/12/21 05:00:08;;;;;;;11.70;6.53;;;;;;;-0.03;100.00;100829.22;4957853;28;20482;-90
2021/12/21 05:02:35;;;;;;;17.05;6.57;;;;;;;-0.10;100.00;100801.16;4972263;28;20157;-90
2021/12/21 05:05:00;;;;;;;12.30;7.32;;;;;;;-0.02;100.00;100822.28;4965909;28;20054;-90
2021/12/21 05:07:29;;;;;;;10.25;6.38;;;;;;;-0.26;100.00;100786.00;4950884;29;20047;-90
2021/12/21 05:10:00;;;;;;;12.75;7.32;;;;;;;-0.12;100.00;100829.03;4966355;28;20038;-90
2021/12/21 05:12:26;;;;;;;12.77;7.43;;;;;;;-0.31;100.00;100779.78;4970890;28;20031;-90
2021/12/21 05:14:53;;;;;;;16.10;7.13;;;;;;;-0.15;100.00;100794.94;4973055;28;20050;-89
2021/12/21 05:17:18;;;;;;;18.60;6.85;;;;;;;-0.05;100.00;100822.22;4970781;28;20023;-90
2021/12/21 05:19:43;;;;;;;13.02;6.47;;;;;;;-0.71;100.00;100706.53;4957031;28;20094;-90
2021/12/21 05:22:09;;;;;;;10.55;6.63;;;;;;;-0.11;100.00;100822.06;4967440;28;20091;-90
2021/12/21 05:24:35;;;;;;;11.10;6.30;;;;;;;-0.27;100.00;100799.03;4927350;28;20070;-90
2021/12/21 05:27:00;;;;;;;13.38;6.72;;;;;;;-0.22;100.00;100811.38;4971700;28;20035;-90
2021/12/21 05:29:26;;;;;;;11.65;6.32;;;;;;;-0.81;100.00;100715.03;4958118;28;20026;-90
2021/12/21 05:31:53;;;;;;;15.52;6.93;;;;;;;-0.25;100.00;100798.19;4974514;28;20486;-90
2021/12/21 05:34:19;;;;;;;12.40;6.45;;;;;;;-0.32;100.00;100801.56;4972044;28;20023;-89
2021/12/21 05:36:45;;;;;;;13.00;7.43;;;;;;;-0.87;100.00;100711.41;4939792;28;20050;-90
2021/12/21 05:39:18;;;;;;;10.80;6.90;;;;;;;-0.51;100.00;100782.78;4974240;28;20442;-89
2021/12/21 05:41:51;;;;;;;12.73;7.97;;;;;;;-0.58;100.00;100768.72;4958179;28;20034;-89
2021/12/21 05:44:19;;;;;;;14.80;6.88;;;;;;;-0.56;100.00;100764.38;4966513;28;20038;-90
2021/12/21 05:46:45;;;;;;;13.88;6.80;;;;;;;-0.37;100.00;100805.78;4967499;28;20029;-89
2021/12/21 05:49:10;;;;;;;16.00;8.38;;;;;;;-0.38;100.00;100796.16;4962571;28;20016;-89
2021/12/21 05:51:36;;;;;;;16.42;7.85;;;;;;;-0.32;100.00;100814.63;4956081;29;20035;-89
2021/12/21 05:54:02;;;;;;;11.27;6.38;;;;;;;-0.22;100.00;100828.78;4957521;28;20129;-90
2021/12/21 05:56:27;;;;;;;15.80;6.68;;;;;;;-0.34;100.00;100825.88;4975444;28;20034;-90
2021/12/21 05:58:53;;;;;;;10.30;7.88;;;;;;;-0.58;100.00;100797.44;4976596;28;20475;-90
2021/12/21 06:01:18;;;;;;;17.52;7.80;;;;;;;-0.35;100.00;100830.22;4974151;28;20387;-89
2021/12/21 06:03:44;;;;;;;19.67;7.18;;;;;;;-0.61;100.00;100809.53;4958737;28;20094;-90
2021/12/21 06:06:14;;;;;;;19.17;6.95;;;;;;;-0.42;100.00;100851.81;4974066;28;20169;-90
2021/12/21 06:08:42;;;;;;;28.08;7.72;;;;;;;-0.63;100.00;100840.84;4975064;28;20066;-90
2021/12/21 06:11:09;;;;;;;14.45;6.75;;;;;;;-0.78;100.00;100845.69;4979232;28;20033;-90
2021/12/21 06:22:43;;;;;;;11.45;5.82;;;;;;;-0.82;100.00;100842.94;4975570;28;20037;-89
2021/12/21 06:27:11;;;;;;;10.25;6.28;;;;;;;-0.77;100.00;100852.66;4975243;28;20023;-90
2021/12/21 06:29:36;;;;;;;10.65;6.20;;;;;;;-0.93;100.00;100833.94;4957428;28;20050;-89
2021/12/21 06:32:02;;;;;;;14.60;7.07;;;;;;;-0.72;100.00;100871.94;4957803;28;20572;-90
2021/12/21 06:34:28;;;;;;;15.90;6.80;;;;;;;-0.73;100.00;100867.56;4973373;28;20034;-89
2021/12/21 06:36:54;;;;;;;12.00;6.35;;;;;;;-0.91;100.00;100838.38;4947878;28;20050;-90
2021/12/21 06:39:19;;;;;;;13.00;7.10;;;;;;;-1.18;100.00;100780.22;4973970;28;20479;-89
2021/12/21 06:41:45;;;;;;;13.85;7.03;;;;;;;-0.76;100.00;100859.66;4972535;28;20035;-89
2021/12/21 06:44:13;;;;;;;12.55;5.75;;;;;;;-0.83;100.00;100852.50;4977113;28;20402;-90
2021/12/21 06:51:55;;;;;;;20.15;8.93;;;;;;;-0.83;100.00;100839.47;4978009;28;20398;-89
2021/12/21 06:54:21;;;;;;;20.30;11.40;;;;;;;-0.72;100.00;100866.72;4968855;28;20027;-90
2021/12/21 06:56:47;;;;;;;20.98;9.90;;;;;;;-0.95;100.00;100830.41;4970999;28;20026;-89
2021/12/21 06:59:13;;;;;;;21.05;9.05;;;;;;;-0.99;100.00;100829.47;4973150;28;20023;-89
2021/12/21 07:01:40;;;;;;;16.98;8.40;;;;;;;-1.13;100.00;100827.31;4974124;28;20038;-89
2021/12/21 07:04:10;;;;;;;17.20;8.40;;;;;;;-1.08;100.00;100850.09;4966032;28;20081;-89
2021/12/21 07:06:38;;;;;;;14.63;8.18;;;;;;;-1.13;100.00;100850.78;4974750;28;20375;-89
2021/12/21 07:09:13;;;;;;;16.10;8.52;;;;;;;-1.17;100.00;100847.22;4972390;28;20137;-89
2021/12/21 07:11:46;;;;;;;13.80;7.22;;;;;;;-1.27;100.00;100832.19;4973670;28;20026;-89
2021/12/21 07:19:49;;;;;;;11.48;7.05;;;;;;;-0.95;100.00;100872.19;4982895;28;20033;-89
2021/12/21 07:22:16;;;;;;;10.93;7.70;;;;;;;-1.13;100.00;100841.25;4972996;28;20022;-89
2021/12/21 07:24:41;;;;;;;12.25;6.88;;;;;;;-1.05;100.00;100842.34;4973097;28;20717;-89
2021/12/21 07:27:07;;;;;;;15.85;7.40;;;;;;;-1.09;100.00;100817.00;4974164;28;20027;-89
2021/12/21 07:29:33;;;;;;;11.10;7.63;;;;;;;-1.38;100.00;100807.50;4971173;28;20055;-89
2021/12/21 07:31:58;;;;;;;15.45;7.85;;;;;;;-1.36;100.00;100784.94;4957207;28;20066;-89
2021/12/21 07:34:24;;;;;;;12.48;7.63;;;;;;;-0.81;100.00;100866.50;4956198;28;20062;-90
2021/12/21 07:36:52;;;;;;;10.98;7.72;;;;;;;-1.41;100.00;100768.28;4972830;28;20030;-89
2021/12/21 07:39:19;;;;;;;15.70;9.02;;;;;;;-1.88;100.00;100673.13;4958679;28;20031;-89
2021/12/21 07:41:45;;;;;;;11.55;8.30;;;;;;;-0.42;100.00;100850.94;4954417;29;20151;-89
2021/12/21 07:44:12;;;;;;;17.77;8.25;;;;;;;-0.18;100.00;100851.50;4966859;28;20529;-89
2021/12/21 07:46:40;;;;;;;14.43;7.90;;;;;;;0.00;100.00;100862.41;4971991;28;20037;-89
2021/12/21 07:49:06;;;;;;;14.40;8.57;;;;;;;0.13;100.00;100863.56;4972170;28;20027;-89
2021/12/21 07:51:31;;;;;;;15.40;8.00;;;;;;;0.13;100.00;100848.78;4971212;28;20103;-89
2021/12/21 07:53:57;;;;;;;17.35;8.15;;;;;;;0.25;100.00;100859.47;4972797;28;20035;-89
2021/12/21 07:56:22;;;;;;;16.33;9.18;;;;;;;0.38;100.00;100863.25;4958248;28;20022;-89
2021/12/21 07:58:48;;;;;;;23.45;11.68;;;;;;;0.42;100.00;100859.84;4973743;28;20566;-89
2021/12/21 08:01:14;;;;;;;24.63;11.32;;;;;;;0.40;100.00;100858.91;4949719;28;20566;-89
2021/12/21 08:03:40;;;;;;;19.15;11.52;;;;;;;0.54;100.00;100879.31;4969602;28;20035;-89
2021/12/21 08:06:07;;;;;;;19.90;10.82;;;;;;;0.59;99.94;100882.03;4955071;28;20023;-89
2021/12/21 08:08:36;;;;;;;15.15;9.23;;;;;;;0.44;100.00;100845.06;4961399;28;20962;-89
2021/12/21 08:14:04;;;;;;;12.07;7.00;;;;;;;0.57;99.52;100845.34;4880264;29;20504;-89
2021/12/21 08:16:30;;;;;;;18.98;7.38;;;;;;;0.62;99.77;100841.09;4940508;28;20442;-89
2021/12/21 08:18:55;;;;;;;13.80;7.50;;;;;;;0.68;99.54;100846.44;4955464;28;20034;-89
2021/12/21 08:21:24;;;;;;;16.10;6.75;;;;;;;0.93;99.36;100859.19;4970906;28;20555;-89
2021/12/21 08:23:51;;;;;;;13.48;7.53;;;;;;;0.99;99.06;100863.63;4972412;28;20117;-89
2021/12/21 08:26:17;;;;;;;13.52;7.22;;;;;;;1.18;99.17;100871.00;4970734;28;20040;-89
2021/12/21 08:28:42;;;;;;;11.88;6.80;;;;;;;1.02;97.85;100845.38;4971339;28;20409;-89
2021/12/21 08:31:11;;;;;;;13.52;7.53;;;;;;;0.85;97.85;100812.75;4971184;28;20022;-89
2021/12/21 08:33:37;;;;;;;11.70;7.72;;;;;;;0.95;98.08;100831.28;4973722;28;20038;-89
2021/12/21 08:36:08;;;;;;;14.02;7.47;;;;;;;1.08;98.02;100832.38;4954818;28;20023;-89
2021/12/21 08:38:37;;;;;;;14.50;7.38;;;;;;;1.28;97.93;100867.69;4955573;28;20037;-89
2021/12/21 08:41:03;;;;;;;14.35;8.02;;;;;;;1.39;96.74;100874.00;4955004;28;20027;-89
2021/12/21 08:43:31;;;;;;;16.40;7.93;;;;;;;1.36;97.32;100860.84;4956322;28;20164;-89
2021/12/21 08:45:57;;;;;;;17.38;7.97;;;;;;;1.72;97.17;100882.44;4963020;28;20023;-89
2021/12/21 08:48:23;;;;;;;17.80;8.18;;;;;;;1.84;97.46;100887.00;4955483;28;20030;-89
2021/12/21 08:50:53;;;;;;;16.85;7.30;;;;;;;2.38;100.00;100858.94;4971857;28;20743;-89
2021/12/21 08:53:19;;;;;;;15.52;8.60;;;;;;;4.39;100.00;100810.00;4971521;28;20062;-89
2021/12/21 08:55:45;;;;;;;20.98;11.13;;;;;;;7.07;99.51;100817.81;4969808;28;20101;-90
2021/12/21 08:58:12;;;;;;;17.42;9.82;;;;;;;9.41;80.86;100837.50;4971503;28;20054;-90
2021/12/21 09:00:38;;;;;;;18.60;8.13;;;;;;;11.59;67.23;100835.94;4974473;28;20050;-90
2021/12/21 09:03:04;;;;;;;13.50;6.00;;;;;;;13.23;55.38;100819.91;4953962;28;20029;-90
2021/12/21 09:05:31;;;;;;;8.75;5.45;;;;;;;14.65;49.37;100834.75;4970470;28;20487;-89
2021/12/21 09:07:59;;;;;;;7.72;5.07;;;;;;;15.67;43.89;100841.53;4971685;28;20043;-90
2021/12/21 09:10:25;;;;;;;9.27;5.00;;;;;;;15.75;41.67;100800.97;4970986;28;20069;-90
2021/12/21 09:12:54;;;;;;;9.55;5.13;;;;;;;16.81;39.82;100861.72;4967835;28;20030;-89
2021/12/21 09:15:24;;;;;;;11.38;4.97;;;;;;;16.50;38.64;100764.63;4970615;28;20027;-90
2021/12/21 09:17:49;;;;;;;11.23;5.25;;;;;;;17.26;37.08;100848.88;4970994;28;20430;-91
2021/12/21 09:20:18;;;;;;;8.13;4.53;;;;;;;17.57;37.05;100868.03;4969766;28;20031;-91
2021/12/21 09:22:46;;;;;;;17.60;5.28;;;;;;;17.69;36.30;100870.13;4971263;28;20054;-90
2021/12/21 09:25:12;;;;;;;6.55;4.68;;;;;;;17.22;36.51;100857.13;4970312;28;20491;-91
2021/12/21 09:27:38;;;;;;;12.50;4.93;;;;;;;17.34;36.40;100865.53;4955662;28;20030;-90
2021/12/21 09:30:06;;;;;;;8.95;4.45;;;;;;;17.50;35.83;100852.25;4965293;28;20028;-90
2021/12/21 09:32:32;;;;;;;9.77;5.82;;;;;;;16.51;36.32;100863.03;4989880;28;20033;-90
2021/12/21 09:34:59;;;;;;;7.95;5.30;;;;;;;16.01;36.68;100873.22;4975196;28;20465;-90
2021/12/21 09:37:26;;;;;;;10.85;5.63;;;;;;;16.38;36.98;100851.06;4966073;28;20042;-90
2021/12/21 09:39:54;;;;;;;23.70;4.95;;;;;;;17.20;36.02;100865.28;4953744;28;20027;-90
2021/12/21 09:42:22;;;;;;;10.77;6.32;;;;;;;17.04;34.78;100805.09;4970689;28;20106;-91
2021/12/21 09:44:48;;;;;;;11.60;6.00;;;;;;;16.95;36.03;100864.66;4971132;28;20054;-91
2021/12/21 09:47:14;;;;;;;10.55;6.38;;;;;;;16.67;35.73;100864.16;4972119;28;20073;-91
2021/12/21 09:49:42;;;;;;;10.65;6.95;;;;;;;16.67;35.35;100872.22;4955278;28;20101;-91
2021/12/21 09:52:12;;;;;;;9.07;6.05;;;;;;;16.59;35.20;100866.31;4969414;28;20030;-91
2021/12/21 09:54:39;;;;;;;10.23;6.53;;;;;;;16.64;36.32;100845.44;4970276;28;20068;-91
2021/12/21 09:57:09;;;;;;;11.65;6.10;;;;;;;17.25;34.75;100840.88;4971640;28;20410;-91
2021/12/21 09:59:35;;;;;;;9.80;4.75;;;;;;;17.61;33.32;100831.94;4971890;28;20069;-90
2021/12/21 10:02:02;;;;;;;11.50;5.45;;;;;;;17.61;34.14;100823.88;4969679;28;20557;-90
2021/12/21 10:04:29;;;;;;;10.85;5.55;;;;;;;17.72;34.53;100831.44;4971223;28;20030;-90
2021/12/21 10:06:56;;;;;;;11.38;5.00;;;;;;;17.58;33.73;100847.34;4960301;28;20114;-90
2021/12/21 10:09:33;;;;;;;13.88;6.15;;;;;;;16.87;35.50;100837.25;4970360;28;20185;-90
2021/12/21 10:11:59;;;;;;;15.82;8.55;;;;;;;16.81;35.06;100791.84;4969558;28;20102;-90
2021/12/21 10:14:26;;;;;;;12.63;6.22;;;;;;;16.74;35.83;100823.50;4973299;28;20446;-89
2021/12/21 10:17:07;;;;;;;10.70;4.88;;;;;;;17.06;35.72;100808.59;4974724;28;20479;-89
2021/12/21 10:19:33;;;;;;;7.07;4.90;;;;;;;17.89;34.82;100829.66;4957964;28;20102;-89
2021/12/21 10:22:17;;;;;;;8.13;4.80;;;;;;;17.04;34.80;100752.22;4973593;28;20166;-89
2021/12/21 10:24:46;;;;;;;9.48;4.50;;;;;;;17.51;35.15;100848.63;4957983;28;20030;-89
2021/12/21 10:27:12;;;;;;;11.43;4.72;;;;;;;17.51;34.82;100771.47;4957167;28;20022;-89
2021/12/21 10:29:46;;;;;;;8.48;5.20;;;;;;;18.04;34.51;100833.41;4973396;28;20045;-89
2021/12/21 10:32:32;;;;;;;6.97;4.95;;;;;;;18.22;33.93;100844.13;4975246;28;20042;-89
2021/12/21 10:35:03;;;;;;;7.90;4.43;;;;;;;18.24;33.87;100819.81;4973455;28;20394;-89
2021/12/21 10:37:31;;;;;;;7.50;4.65;;;;;;;18.30;34.88;100824.91;4976370;28;20035;-89
2021/12/21 10:40:24;;;;;;;12.50;5.10;;;;;;;17.98;34.22;100839.97;4974546;28;20019;-89
2021/12/21 10:43:01;;;;;;;11.45;5.28;;;;;;;17.42;34.76;100812.25;4973329;28;20122;-89
2021/12/21 10:45:31;;;;;;;8.80;4.85;;;;;;;17.72;35.04;100843.09;4957390;28;20045;-89
2021/12/21 10:47:58;;;;;;;9.60;4.85;;;;;;;17.16;34.85;100769.59;4973951;28;20237;-89
2021/12/21 10:50:24;;;;;;;11.20;5.82;;;;;;;17.52;34.50;100820.75;4975113;28;20037;-89
2021/12/21 10:52:52;;;;;;;8.82;5.00;;;;;;;17.10;35.31;100832.56;4973429;28;20028;-89
2021/12/21 10:55:44;;;;;;;9.88;5.55;;;;;;;17.09;35.49;100838.91;4969711;28;20524;-89
2021/12/21 10:58:16;;;;;;;10.77;4.95;;;;;;;16.60;36.23;100835.81;4954189;28;20081;-89
2021/12/21 11:00:54;;;;;;;11.57;4.60;;;;;;;16.69;35.80;100828.19;4956206;28;20037;-89
2021/12/21 11:03:30;;;;;;;7.22;4.80;;;;;;;16.89;35.87;100830.88;4956018;28;20475;-89
2021/12/21 11:06:07;;;;;;;9.80;5.10;;;;;;;16.31;35.67;100772.59;4970996;28;20058;-89
2021/12/21 11:08:37;;;;;;;9.52;5.50;;;;;;;16.36;36.68;100831.47;4972565;28;20423;-89
2021/12/21 11:11:03;;;;;;;9.52;5.10;;;;;;;16.58;35.45;100792.00;4972794;28;20386;-90
2021/12/21 11:13:30;;;;;;;9.75;5.22;;;;;;;16.68;35.95;100793.34;4973392;28;20040;-89
2021/12/21 11:15:57;;;;;;;10.43;6.60;;;;;;;15.98;35.89;100805.38;4969144;28;20098;-89
2021/12/21 11:18:25;;;;;;;9.25;5.05;;;;;;;15.55;36.67;100793.72;4936707;29;20030;-89
2021/12/21 11:20:54;;;;;;;7.63;4.90;;;;;;;15.31;38.88;100816.13;4953510;29;20566;-89
2021/12/21 11:23:22;;;;;;;10.73;5.30;;;;;;;15.74;37.03;100793.84;4947708;28;20113;-89
2021/12/21 11:25:50;;;;;;;11.32;5.03;;;;;;;16.29;35.97;100816.56;4972415;28;20400;-89
2021/12/21 11:28:20;;;;;;;10.60;5.45;;;;;;;16.57;35.65;100784.91;4971354;28;20030;-89
2021/12/21 11:30:47;;;;;;;12.02;5.13;;;;;;;16.60;36.35;100790.13;4961708;28;20105;-89
2021/12/21 11:33:16;;;;;;;11.60;5.90;;;;;;;16.11;35.64;100707.31;4973238;28;20480;-89
2021/12/21 11:38:11;;;;;;;10.13;4.82;;;;;;;16.50;36.62;100773.56;4973614;28;20102;-89
2021/12/21 11:40:40;;;;;;;10.13;5.72;;;;;;;16.43;36.89;100780.09;4955212;28;20438;-89
2021/12/21 11:43:12;;;;;;;8.45;4.35;;;;;;;16.76;36.32;100773.25;4976989;28;20027;-89
2021/12/21 11:45:49;;;;;;;12.35;5.22;;;;;;;16.18;36.24;100765.13;4973222;28;20053;-89
2021/12/21 11:48:14;;;;;;;9.88;4.97;;;;;;;15.90;36.99;100778.00;4971583;28;20080;-89
2021/12/21 11:50:43;;;;;;;8.50;5.05;;;;;;;16.18;36.86;100783.91;4971001;28;20118;-89
2021/12/21 11:53:12;;;;;;;9.10;4.60;;;;;;;15.58;38.13;100782.88;4973018;28;20200;-89
2021/12/21 11:55:41;;;;;;;11.23;5.10;;;;;;;15.87;36.79;100773.63;4971060;28;20049;-89
2021/12/21 11:58:25;;;;;;;10.50;5.25;;;;;;;15.80;37.30;100775.69;4970400;28;20030;-89
2021/12/21 12:00:56;;;;;;;7.85;4.47;;;;;;;16.37;36.70;100764.28;4971691;28;20517;-89
2021/12/21 12:03:25;;;;;;;6.78;4.90;;;;;;;16.47;37.07;100760.28;4964021;28;20445;-89
2021/12/21 12:06:02;;;;;;;9.65;5.22;;;;;;;15.91;36.10;100763.66;4971551;28;20066;-89